createdAt,value
2022-12-26T00:02:34.970Z,97634.81
2022-12-26T00:06:37.072Z,97629.06
2022-12-26T00:10:39.168Z,97635.38
2022-12-26T00:14:41.288Z,97614.63
2022-12-26T00:18:44.407Z,97623.56
2022-12-26T00:22:46.416Z,97612.22
2022-12-26T00:26:48.420Z,97626.28
2022-12-26T00:30:50.419Z,97605.31
2022-12-26T00:34:52.447Z,97611.38
2022-12-26T00:38:54.544Z,97618.25
2022-12-26T00:42:56.579Z,97615.63
2022-12-26T00:46:58.674Z,97614.63
2022-12-26T00:51:01.251Z,97606.31
2022-12-26T00:55:03.373Z,97606.16
2022-12-26T00:59:05.439Z,97610.97
2022-12-26T01:03:09.190Z,97608.63
2022-12-26T01:07:11.170Z,97606.25
2022-12-26T01:11:14.959Z,97616.09
2022-12-26T01:15:17.029Z,97616.31
2022-12-26T01:19:19.059Z,97632.06
2022-12-26T01:23:21.092Z,97624.19
2022-12-26T01:27:25.076Z,97625.09
2022-12-26T01:31:27.311Z,97629.50
2022-12-26T01:35:29.389Z,97632.34
2022-12-26T01:39:31.490Z,97622.88
2022-12-26T01:43:52.284Z,97638.59
2022-12-26T01:47:59.022Z,97646.69
2022-12-26T01:52:05.549Z,97654.00
2022-12-26T01:56:12.205Z,97660.41
2022-12-26T02:00:15.412Z,97664.13
2022-12-26T02:04:41.965Z,97662.25
2022-12-26T02:08:45.754Z,97664.88
2022-12-26T02:12:48.497Z,97668.59
2022-12-26T02:16:50.627Z,97667.97
2022-12-26T02:21:02.006Z,97672.22
2022-12-26T02:25:57.154Z,97670.19
2022-12-26T02:30:21.252Z,97676.47
2022-12-26T02:34:33.197Z,97670.47
2022-12-26T02:38:44.772Z,97674.94
2022-12-26T02:43:15.865Z,97675.16
2022-12-26T02:47:35.689Z,97654.34
2022-12-26T02:52:23.429Z,97658.88
2022-12-26T02:56:55.444Z,97674.75
2022-12-26T03:01:21.946Z,97687.03
2022-12-26T03:05:57.588Z,97659.97
2022-12-26T03:10:24.019Z,97656.28
2022-12-26T03:14:28.254Z,97670.13
2022-12-26T03:18:58.860Z,97661.34
2022-12-26T03:22:57.705Z,97670.75
2022-12-26T03:26:59.879Z,97666.44
2022-12-26T03:31:06.742Z,97682.81
2022-12-26T03:35:14.321Z,97676.47
2022-12-26T03:39:53.835Z,97657.00
2022-12-26T03:44:53.280Z,97644.75
2022-12-26T03:49:35.161Z,97637.91
2022-12-26T03:54:03.387Z,97643.34
2022-12-26T03:58:39.381Z,97637.59
2022-12-26T04:03:04.666Z,97622.31
2022-12-26T04:07:30.924Z,97624.19
2022-12-26T04:11:55.414Z,97632.34
2022-12-26T04:16:27.003Z,97634.19
2022-12-26T04:20:50.958Z,97628.31
2022-12-26T04:25:48.383Z,97633.91
2022-12-26T04:30:06.110Z,97634.13
2022-12-26T04:34:37.410Z,97643.09
2022-12-26T04:39:01.364Z,97637.91
2022-12-26T04:43:49.520Z,97640.53
2022-12-26T04:48:05.246Z,97651.44
2022-12-26T04:52:11.887Z,97663.13
2022-12-26T04:56:14.735Z,97654.63
2022-12-26T05:00:17.176Z,97648.53
2022-12-26T05:04:38.466Z,97644.16
2022-12-26T05:09:04.044Z,97650.31
2022-12-26T05:13:06.026Z,97621.69
2022-12-26T05:17:27.334Z,97635.59
2022-12-26T05:21:48.461Z,97643.41
2022-12-26T05:26:16.695Z,97645.00
2022-12-26T05:30:18.812Z,97652.72
2022-12-26T05:34:21.351Z,97674.41
2022-12-26T05:38:23.381Z,97676.00
2022-12-26T05:42:25.405Z,97678.41
2022-12-26T05:46:27.503Z,97686.75
2022-12-26T05:50:29.813Z,97684.88
2022-12-26T05:54:31.865Z,97680.16
2022-12-26T05:58:34.340Z,97709.63
2022-12-26T06:02:36.488Z,97698.97
2022-12-26T06:06:38.657Z,97709.34
2022-12-26T06:10:41.022Z,97710.09
2022-12-26T06:14:43.075Z,97713.56
2022-12-26T06:18:45.266Z,97718.59
2022-12-26T06:22:47.280Z,97714.19
2022-12-26T06:26:49.754Z,97719.38
2022-12-26T06:30:52.616Z,97718.59
2022-12-26T06:34:54.607Z,97734.41
2022-12-26T06:38:57.213Z,97730.00
2022-12-26T06:42:59.217Z,97716.13
2022-12-26T06:47:01.401Z,97718.66
2022-12-26T06:51:09.557Z,97708.25
2022-12-26T06:55:11.573Z,97728.34
2022-12-26T06:59:13.653Z,97730.00
2022-12-26T07:03:15.791Z,97718.59
2022-12-26T07:07:17.858Z,97715.00
2022-12-26T07:11:23.281Z,97720.16
2022-12-26T07:15:25.297Z,97717.53
2022-12-26T07:19:27.329Z,97727.31
2022-12-26T07:23:30.789Z,97717.78
2022-12-26T07:27:32.813Z,97722.63
2022-12-26T07:31:34.856Z,97729.25
2022-12-26T07:35:36.925Z,97739.25
2022-12-26T07:39:38.908Z,97762.22
2022-12-26T07:43:40.918Z,97761.66
2022-12-26T07:47:42.944Z,97768.88
2022-12-26T07:51:44.969Z,97745.50
2022-12-26T07:55:48.263Z,97788.66
2022-12-26T07:59:53.419Z,97797.44
2022-12-26T08:03:57.539Z,97789.72
2022-12-26T08:07:59.579Z,97777.69
2022-12-26T08:12:01.568Z,97803.16
2022-12-26T08:16:08.178Z,97794.53
2022-12-26T08:20:10.480Z,97784.75
2022-12-26T08:24:13.456Z,97750.63
2022-12-26T08:28:15.531Z,97734.91
2022-12-26T08:32:17.582Z,97733.19
2022-12-26T08:36:19.661Z,97749.75
2022-12-26T08:40:39.962Z,97758.38
2022-12-26T08:44:43.647Z,97774.53
2022-12-26T08:48:46.396Z,97796.22
2022-12-26T08:52:48.394Z,97792.56
2022-12-26T08:56:50.383Z,97795.72
2022-12-26T09:00:55.429Z,97800.00
2022-12-26T09:04:57.717Z,97817.28
2022-12-26T09:09:00.479Z,97827.69
2022-12-26T09:13:02.547Z,97813.81
2022-12-26T09:17:04.597Z,97806.22
2022-12-26T09:21:08.617Z,97821.75
2022-12-26T09:25:10.626Z,97874.19
2022-12-26T09:29:13.412Z,97861.81
2022-12-26T09:33:15.444Z,97839.09
2022-12-26T09:37:17.432Z,97832.66
2022-12-26T09:41:47.144Z,97833.78
2022-12-26T09:45:54.181Z,97833.09
2022-12-26T09:50:31.835Z,97835.78
2022-12-26T09:54:39.128Z,97826.31
2022-12-26T09:58:47.206Z,97848.84
2022-12-26T10:02:54.765Z,97856.63
2022-12-26T10:07:11.998Z,97847.41
2022-12-26T10:11:52.032Z,97841.81
2022-12-26T10:15:57.217Z,97854.97
2022-12-26T10:20:11.516Z,97836.63
2022-12-26T10:24:21.825Z,97850.50
2022-12-26T10:28:28.557Z,97830.75
2022-12-26T10:32:38.497Z,97837.44
2022-12-26T10:36:46.443Z,97844.34
2022-12-26T10:40:53.204Z,97839.25
2022-12-26T10:44:55.340Z,97847.94
2022-12-26T10:48:58.816Z,97852.22
2022-12-26T10:53:04.845Z,97859.28
2022-12-26T10:57:08.385Z,97866.31
2022-12-26T11:01:37.830Z,97853.03
2022-12-26T11:10:16.364Z,97861.53
2022-12-26T11:14:42.188Z,97864.00
2022-12-26T11:18:50.123Z,97877.13
2022-12-26T11:22:53.086Z,97879.75
2022-12-26T11:27:20.240Z,97875.28
2022-12-26T11:31:26.870Z,97879.53
2022-12-26T11:35:35.034Z,97882.78
2022-12-26T11:39:38.472Z,97871.41
2022-12-26T11:43:40.533Z,97879.16
2022-12-26T11:47:45.882Z,97883.34
2022-12-26T11:51:57.121Z,97871.06
2022-12-26T11:56:05.339Z,97878.09
2022-12-26T12:00:21.983Z,97867.59
2022-12-26T12:04:24.212Z,97860.63
2022-12-26T12:08:50.817Z,97865.72
2022-12-26T12:13:12.686Z,97875.53
2022-12-26T12:17:23.781Z,97869.59
2022-12-26T12:21:48.612Z,97846.06
2022-12-26T12:26:20.202Z,97852.06
2022-12-26T12:30:28.138Z,97863.63
2022-12-26T12:34:45.187Z,97868.78
2022-12-26T12:38:56.781Z,97874.50
2022-12-26T12:43:23.549Z,97877.81
2022-12-26T12:47:36.370Z,97868.06
2022-12-26T12:52:03.539Z,97858.91
2022-12-26T12:56:43.984Z,97863.22
2022-12-26T13:00:52.391Z,97852.09
2022-12-26T13:05:04.656Z,97864.59
2022-12-26T13:09:30.401Z,97872.94
2022-12-26T13:13:54.065Z,97863.69
2022-12-26T13:18:05.720Z,97857.88
2022-12-26T13:22:26.107Z,97843.94
2022-12-26T13:26:37.180Z,97851.06
2022-12-26T13:30:39.584Z,97845.06
2022-12-26T13:34:44.205Z,97852.28
2022-12-26T13:38:58.490Z,97855.75
2022-12-26T13:43:27.774Z,97847.41
2022-12-26T13:47:31.104Z,97844.13
2022-12-26T13:51:49.096Z,97835.41
2022-12-26T13:55:53.882Z,97828.63
2022-12-26T14:00:23.333Z,97822.28
2022-12-26T14:04:47.676Z,97811.22
2022-12-26T14:09:04.640Z,97813.34
2022-12-26T14:13:31.247Z,97828.50
2022-12-26T14:17:45.868Z,97807.72
2022-12-26T14:21:50.769Z,97817.56
2022-12-26T14:26:19.368Z,97805.56
2022-12-26T14:30:34.096Z,97826.97
2022-12-26T14:35:13.714Z,97833.41
2022-12-26T14:39:22.288Z,97834.47
2022-12-26T14:43:32.300Z,97838.13
2022-12-26T14:47:47.496Z,97834.75
2022-12-26T14:51:50.063Z,97825.44
2022-12-26T14:55:59.182Z,97831.69
2022-12-26T15:00:26.021Z,97831.94
2022-12-26T15:04:49.727Z,97831.22
2022-12-26T15:09:23.061Z,97839.13
2022-12-26T15:14:01.662Z,97848.81
2022-12-26T15:18:03.567Z,97858.44
2022-12-26T15:22:27.566Z,97860.06
2022-12-26T15:27:01.207Z,97866.94
2022-12-26T15:31:26.454Z,97865.91
2022-12-26T15:35:35.959Z,97863.22
2022-12-26T15:40:12.151Z,97849.22
2022-12-26T15:45:02.299Z,97838.75
2022-12-26T15:49:49.016Z,97840.47
2022-12-26T15:54:13.171Z,97842.16
2022-12-26T15:58:50.569Z,97842.16
2022-12-26T16:03:14.651Z,97855.13
2022-12-26T16:07:50.615Z,97860.41
2022-12-26T16:11:58.574Z,97865.59
2022-12-26T16:16:00.821Z,97852.50
2022-12-26T16:20:41.146Z,97839.69
2022-12-26T16:24:44.139Z,97850.41
2022-12-26T16:28:46.429Z,97882.03
2022-12-26T16:32:49.652Z,97898.78
2022-12-26T16:36:51.912Z,97919.66
2022-12-26T16:40:55.607Z,97976.25
2022-12-26T16:44:58.312Z,97985.06
2022-12-26T16:49:01.766Z,97993.28
2022-12-26T16:53:15.515Z,98010.47
2022-12-26T16:57:21.962Z,98009.28
2022-12-26T17:01:24.137Z,97998.22
2022-12-26T17:05:36.067Z,97946.00
2022-12-26T17:09:55.899Z,97953.13
2022-12-26T17:13:58.953Z,97939.22
2022-12-26T17:18:39.482Z,97959.19
2022-12-26T17:22:41.506Z,97969.47
2022-12-26T17:26:44.205Z,97983.19
2022-12-26T17:30:48.742Z,97994.47
2022-12-26T17:34:50.824Z,97971.69
2022-12-26T17:38:53.339Z,97980.25
2022-12-26T17:43:05.032Z,97996.03
2022-12-26T17:47:31.273Z,97986.44
2022-12-26T17:51:34.406Z,97986.56
2022-12-26T17:55:36.392Z,98001.25
2022-12-26T17:59:38.391Z,98003.13
2022-12-26T18:03:40.381Z,98010.50
2022-12-26T18:07:44.089Z,98041.25
2022-12-26T18:11:46.074Z,98048.59
2022-12-26T18:15:48.264Z,98059.25
2022-12-26T18:19:50.343Z,98075.06
2022-12-26T18:23:52.503Z,98066.41
2022-12-26T18:27:54.573Z,98067.38
2022-12-26T18:31:56.819Z,98071.75
2022-12-26T18:36:03.007Z,98096.16
2022-12-26T18:40:24.711Z,98101.41
2022-12-26T18:44:26.865Z,98114.56
2022-12-26T18:48:28.843Z,98126.75
2022-12-26T18:52:30.863Z,98127.06
2022-12-26T18:56:32.937Z,98131.78
2022-12-26T19:00:36.277Z,98135.59
2022-12-26T19:04:38.360Z,98137.59
2022-12-26T19:08:40.543Z,98135.97
2022-12-26T19:12:43.039Z,98142.31
2022-12-26T19:16:45.516Z,98152.91
2022-12-26T19:20:47.586Z,98153.25
2022-12-26T19:24:50.664Z,98164.00
2022-12-26T19:28:54.567Z,98170.38
2022-12-26T19:32:56.570Z,98182.78
2022-12-26T19:36:58.685Z,98187.25
2022-12-26T19:41:08.023Z,98185.59
2022-12-26T19:45:11.294Z,98204.53
2022-12-26T19:49:13.325Z,98203.59
2022-12-26T19:53:15.355Z,98212.06
2022-12-26T19:57:17.349Z,98225.78
2022-12-26T20:01:28.008Z,98239.63
2022-12-26T20:05:30.078Z,98243.22
2022-12-26T20:09:32.366Z,98254.75
2022-12-26T20:13:35.208Z,98252.44
2022-12-26T20:17:37.244Z,98258.72
2022-12-26T20:21:39.512Z,98264.94
2022-12-26T20:25:41.509Z,98273.59
2022-12-26T20:29:43.791Z,98280.44
2022-12-26T20:33:47.646Z,98289.94
2022-12-26T20:37:49.625Z,98299.47
2022-12-26T20:41:51.611Z,98311.72
2022-12-26T20:45:54.971Z,98323.16
2022-12-26T20:49:56.999Z,98344.31
2022-12-26T20:53:59.080Z,98349.75
2022-12-26T20:58:01.117Z,98363.81
2022-12-26T21:02:03.401Z,98379.53
2022-12-26T21:06:08.516Z,98378.84
2022-12-26T21:10:11.472Z,98388.75
2022-12-26T21:14:17.660Z,98400.94
2022-12-26T21:18:19.654Z,98409.91
2022-12-26T21:22:21.648Z,98421.50
2022-12-26T21:26:24.748Z,98433.84
2022-12-26T21:30:26.768Z,98441.78
2022-12-26T21:34:31.013Z,98453.22
2022-12-26T21:38:33.024Z,98461.13
2022-12-26T21:42:35.020Z,98475.94
2022-12-26T21:46:37.090Z,98477.72
2022-12-26T21:50:44.508Z,98487.25
2022-12-26T21:55:05.235Z,98494.22
2022-12-26T21:59:27.842Z,98514.16
2022-12-26T22:03:48.257Z,98516.78
2022-12-26T22:07:59.244Z,98532.34
2022-12-26T22:12:19.745Z,98540.16
2022-12-26T22:16:21.906Z,98547.94
2022-12-26T22:20:24.218Z,98549.69
2022-12-26T22:24:26.231Z,98557.44
2022-12-26T22:28:30.029Z,98575.56
2022-12-26T22:32:32.016Z,98592.91
2022-12-26T22:36:34.437Z,98596.34
2022-12-26T22:40:36.450Z,98593.78
2022-12-26T22:44:38.440Z,98615.38
2022-12-26T22:48:41.613Z,98617.97
2022-12-26T22:52:44.252Z,98622.28
2022-12-26T22:56:46.261Z,98617.13
2022-12-26T23:00:48.290Z,98626.66
2022-12-26T23:04:50.562Z,98629.25
2022-12-26T23:08:54.574Z,98637.00
2022-12-26T23:12:57.055Z,98638.75
2022-12-26T23:17:04.933Z,98643.94
2022-12-26T23:21:38.808Z,98639.66
2022-12-26T23:25:41.006Z,98646.50
2022-12-26T23:30:03.340Z,98645.63
2022-12-26T23:34:05.407Z,98653.41
2022-12-26T23:38:07.412Z,98649.09
2022-12-26T23:42:09.418Z,98655.16
2022-12-26T23:46:11.458Z,98658.63
2022-12-26T23:50:15.363Z,98656.00
2022-12-26T23:54:17.399Z,98652.56
2022-12-26T23:58:19.412Z,98651.72
